createdAt,value
2023-05-15T00:00:33.053Z,97.36
2023-05-15T00:01:32.115Z,95.73
2023-05-15T00:02:33.166Z,95.82
2023-05-15T00:03:33.240Z,96.93
2023-05-15T00:04:33.184Z,101.91
2023-05-15T00:05:32.199Z,100.80
2023-05-15T00:06:33.248Z,100.58
2023-05-15T00:07:32.284Z,100.25
2023-05-15T00:08:33.302Z,98.72
2023-05-15T00:09:33.335Z,101.03
2023-05-15T00:10:33.376Z,103.71
2023-05-15T00:11:33.419Z,99.77
2023-05-15T00:12:33.467Z,96.72
2023-05-15T00:13:32.452Z,95.20
2023-05-15T00:14:32.480Z,96.08
2023-05-15T00:15:33.523Z,97.00
2023-05-15T00:16:32.584Z,95.18
2023-05-15T00:17:32.641Z,98.83
2023-05-15T00:18:33.677Z,100.86
2023-05-15T00:19:33.680Z,96.95
2023-05-15T00:20:32.696Z,98.69
2023-05-15T00:21:32.767Z,99.30
2023-05-15T00:22:32.786Z,101.43
2023-05-15T00:23:33.820Z,98.00
2023-05-15T00:24:33.830Z,97.46
2023-05-15T00:25:32.867Z,100.19
2023-05-15T00:26:33.969Z,100.36
2023-05-15T00:27:32.921Z,94.41
2023-05-15T00:28:32.954Z,96.76
2023-05-15T00:29:33.988Z,97.54
2023-05-15T00:30:34.043Z,98.61
2023-05-15T00:31:34.085Z,98.31
2023-05-15T00:32:34.098Z,96.85
2023-05-15T00:33:34.124Z,98.54
2023-05-15T00:34:33.174Z,96.91
2023-05-15T00:35:33.189Z,98.46
2023-05-15T00:36:34.231Z,96.84
2023-05-15T00:37:33.300Z,99.16
2023-05-15T00:38:34.346Z,96.29
2023-05-15T00:39:33.332Z,96.66
2023-05-15T00:40:34.354Z,94.87
2023-05-15T00:41:34.390Z,98.81
2023-05-15T00:42:33.437Z,96.63
2023-05-15T00:43:34.463Z,95.58
2023-05-15T00:44:34.483Z,94.52
2023-05-15T00:45:33.510Z,93.18
2023-05-15T00:46:34.565Z,97.76
2023-05-15T00:47:34.602Z,95.97
2023-05-15T00:48:33.634Z,94.73
2023-05-15T00:49:33.630Z,96.46
2023-05-15T00:50:33.666Z,98.61
2023-05-15T00:51:34.687Z,97.90
2023-05-15T00:52:34.709Z,98.04
2023-05-15T00:53:34.815Z,97.40
2023-05-15T00:54:33.843Z,96.34
2023-05-15T00:55:34.810Z,97.84
2023-05-15T00:56:34.841Z,95.55
2023-05-15T00:57:34.851Z,93.84
2023-05-15T00:58:34.919Z,94.40
2023-05-15T00:59:34.941Z,93.59
2023-05-15T01:00:33.986Z,95.83
2023-05-15T01:01:34.101Z,95.06
2023-05-15T01:02:35.111Z,95.47
2023-05-15T01:03:34.135Z,90.55
2023-05-15T01:04:35.097Z,94.46
2023-05-15T01:05:35.112Z,96.38
2023-05-15T01:06:35.122Z,95.07
2023-05-15T01:07:35.162Z,98.35
2023-05-15T01:08:34.220Z,95.48
2023-05-15T01:09:35.253Z,94.51
2023-05-15T01:10:34.291Z,95.44
2023-05-15T01:11:34.341Z,97.28
2023-05-15T01:12:35.333Z,95.99
2023-05-15T01:13:34.362Z,97.77
2023-05-15T01:14:35.385Z,95.14
2023-05-15T01:15:34.436Z,94.88
2023-05-15T01:16:34.571Z,94.93
2023-05-15T01:17:35.566Z,96.58
2023-05-15T01:18:34.696Z,98.02
2023-05-15T01:19:35.649Z,97.33
2023-05-15T01:20:35.599Z,98.83
2023-05-15T01:21:34.623Z,98.46
2023-05-15T01:22:35.668Z,95.04
2023-05-15T01:23:34.698Z,94.37
2023-05-15T01:24:35.716Z,95.95
2023-05-15T01:25:34.740Z,97.67
2023-05-15T01:26:34.802Z,96.30
2023-05-15T01:27:34.824Z,95.74
2023-05-15T01:28:35.854Z,93.23
2023-05-15T01:29:35.874Z,94.59
2023-05-15T01:30:35.905Z,95.18
2023-05-15T01:31:35.029Z,94.91
2023-05-15T01:32:35.004Z,93.30
2023-05-15T01:33:34.999Z,97.35
2023-05-15T01:34:36.023Z,95.28
2023-05-15T01:35:35.042Z,94.49
2023-05-15T01:36:35.070Z,94.41
2023-05-15T01:37:36.095Z,97.62
2023-05-15T01:38:35.138Z,96.96
2023-05-15T01:39:36.167Z,96.60
2023-05-15T01:40:35.207Z,96.82
2023-05-15T01:41:36.236Z,95.22
2023-05-15T01:42:35.328Z,97.31
2023-05-15T01:43:35.298Z,95.95
2023-05-15T01:44:35.334Z,95.28
2023-05-15T01:45:35.361Z,98.16
2023-05-15T01:46:36.432Z,95.97
2023-05-15T01:47:35.433Z,98.68
2023-05-15T01:48:35.712Z,99.90
2023-05-15T01:49:36.474Z,101.32
2023-05-15T01:50:35.526Z,102.35
2023-05-15T01:51:35.557Z,101.40
2023-05-15T01:52:35.594Z,99.21
2023-05-15T01:53:35.651Z,100.13
2023-05-15T01:54:36.649Z,101.08
2023-05-15T01:55:36.672Z,101.55
2023-05-15T01:56:36.698Z,101.81
2023-05-15T01:57:36.777Z,101.79
2023-05-15T01:58:35.778Z,101.08
2023-05-15T01:59:36.817Z,99.80
2023-05-15T02:00:36.839Z,100.95
2023-05-15T02:01:36.876Z,101.51
2023-05-15T02:02:35.958Z,100.13
2023-05-15T02:03:36.992Z,101.65
2023-05-15T02:04:36.959Z,103.69
2023-05-15T02:05:35.990Z,104.12
2023-05-15T02:06:37.062Z,102.48
2023-05-15T02:07:36.069Z,101.10
2023-05-15T02:08:37.121Z,101.81
2023-05-15T02:09:36.144Z,102.48
2023-05-15T02:10:37.201Z,100.25
2023-05-15T02:11:36.223Z,100.58
2023-05-15T02:12:36.262Z,100.42
2023-05-15T02:13:37.352Z,103.81
2023-05-15T02:14:36.320Z,99.55
2023-05-15T02:15:36.384Z,96.77
2023-05-15T02:16:37.484Z,98.80
2023-05-15T02:17:37.471Z,98.51
2023-05-15T02:18:36.556Z,101.59
2023-05-15T02:19:37.517Z,102.70
2023-05-15T02:20:37.550Z,102.46
2023-05-15T02:21:36.606Z,100.83
2023-05-15T02:22:37.660Z,99.26
2023-05-15T02:23:36.685Z,98.95
2023-05-15T02:24:37.701Z,97.26
2023-05-15T02:25:36.746Z,97.41
2023-05-15T02:26:36.781Z,97.79
2023-05-15T02:27:37.830Z,97.97
2023-05-15T02:28:37.857Z,97.33
2023-05-15T02:29:37.928Z,97.91
2023-05-15T02:30:36.936Z,100.03
2023-05-15T02:31:38.016Z,98.21
2023-05-15T02:32:38.064Z,104.41
2023-05-15T02:33:37.047Z,101.22
2023-05-15T02:34:38.082Z,100.01
2023-05-15T02:35:38.113Z,102.56
2023-05-15T02:36:37.151Z,102.17
2023-05-15T02:37:37.193Z,104.08
2023-05-15T02:38:37.253Z,102.31
2023-05-15T02:39:38.265Z,102.62
2023-05-15T02:40:38.323Z,102.13
2023-05-15T02:41:37.358Z,99.02
2023-05-15T02:42:37.406Z,101.00
2023-05-15T02:43:38.442Z,101.55
2023-05-15T02:44:37.468Z,102.42
2023-05-15T02:45:38.552Z,102.47
2023-05-15T02:46:38.560Z,101.46
2023-05-15T02:47:38.617Z,99.91
2023-05-15T02:48:37.660Z,99.71
2023-05-15T02:49:37.668Z,101.09
2023-05-15T02:50:38.706Z,100.05
2023-05-15T02:51:38.058Z,98.38
2023-05-15T02:52:37.798Z,101.86
2023-05-15T02:53:38.843Z,100.50
2023-05-15T02:54:37.870Z,100.05
2023-05-15T02:55:37.909Z,101.18
2023-05-15T02:56:38.967Z,99.47
2023-05-15T02:57:37.996Z,98.07
2023-05-15T02:58:39.021Z,98.35
2023-05-15T02:59:39.048Z,96.88
2023-05-15T03:00:39.093Z,97.86
2023-05-15T03:01:39.257Z,100.70
2023-05-15T03:02:39.208Z,98.22
2023-05-15T03:03:39.205Z,99.03
2023-05-15T03:04:38.303Z,99.76
2023-05-15T03:05:38.273Z,98.46
2023-05-15T03:06:39.325Z,102.17
2023-05-15T03:07:38.381Z,102.87
2023-05-15T03:08:38.420Z,102.19
2023-05-15T03:09:39.470Z,100.80
2023-05-15T03:10:39.497Z,99.77
2023-05-15T03:11:38.559Z,105.05
2023-05-15T03:12:39.599Z,101.96
2023-05-15T03:13:38.674Z,101.01
2023-05-15T03:14:39.697Z,99.40
2023-05-15T03:15:39.752Z,97.30
2023-05-15T03:16:38.928Z,96.87
2023-05-15T03:17:39.904Z,97.84
2023-05-15T03:18:38.918Z,100.02
2023-05-15T03:19:39.922Z,98.49
2023-05-15T03:20:38.973Z,98.72
2023-05-15T03:21:39.028Z,95.83
2023-05-15T03:22:39.097Z,100.97
2023-05-15T03:23:40.128Z,101.39
2023-05-15T03:24:39.163Z,99.21
2023-05-15T03:25:39.203Z,102.10
2023-05-15T03:26:39.249Z,99.94
2023-05-15T03:27:40.284Z,101.45
2023-05-15T03:28:41.049Z,102.80
2023-05-15T03:29:39.324Z,104.25
2023-05-15T03:30:39.320Z,99.89
2023-05-15T03:31:40.365Z,103.45
2023-05-15T03:32:40.311Z,103.57
2023-05-15T03:33:40.316Z,101.89
2023-05-15T03:34:41.137Z,100.09
2023-05-15T03:35:39.273Z,102.93
2023-05-15T03:36:39.276Z,99.64
2023-05-15T03:37:40.279Z,98.54
2023-05-15T03:38:40.259Z,100.41
2023-05-15T03:39:40.260Z,102.27
2023-05-15T03:40:40.263Z,99.00
2023-05-15T03:41:40.243Z,97.89
2023-05-15T03:42:39.223Z,101.05
2023-05-15T03:43:40.232Z,99.81
2023-05-15T03:44:39.228Z,103.33
2023-05-15T03:45:40.261Z,104.59
2023-05-15T03:46:40.384Z,104.50
2023-05-15T03:47:40.378Z,102.68
2023-05-15T03:48:40.419Z,103.16
2023-05-15T03:49:39.518Z,100.40
2023-05-15T03:50:39.511Z,99.87
2023-05-15T03:51:39.550Z,101.20
2023-05-15T03:52:40.805Z,100.27
2023-05-15T03:53:39.723Z,100.04
2023-05-15T03:54:39.769Z,104.52
2023-05-15T03:55:40.824Z,103.23
2023-05-15T03:56:39.859Z,102.71
2023-05-15T03:57:40.885Z,104.50
2023-05-15T03:58:39.947Z,100.88
2023-05-15T03:59:39.977Z,102.46
2023-05-15T04:00:40.021Z,103.73
2023-05-15T04:01:55.349Z,101.36
2023-05-15T04:02:41.176Z,101.70
2023-05-15T04:03:41.097Z,103.11
2023-05-15T04:04:41.098Z,103.84
2023-05-15T04:05:40.174Z,102.46
2023-05-15T04:06:40.049Z,104.41
2023-05-15T04:07:41.025Z,104.62
2023-05-15T04:08:41.537Z,101.38
2023-05-15T04:09:41.034Z,102.16
2023-05-15T04:10:41.002Z,101.16
2023-05-15T04:11:41.005Z,100.65
2023-05-15T04:12:39.997Z,99.02
2023-05-15T04:13:40.000Z,99.53
2023-05-15T04:14:39.985Z,96.89
2023-05-15T04:15:40.986Z,101.56
2023-05-15T04:16:41.037Z,100.27
2023-05-15T04:17:41.008Z,98.43
2023-05-15T04:18:41.011Z,98.80
2023-05-15T04:19:41.085Z,103.00
2023-05-15T04:20:40.965Z,99.27
2023-05-15T04:21:40.987Z,100.09
2023-05-15T04:22:40.951Z,100.72
2023-05-15T04:23:40.938Z,99.21
2023-05-15T04:24:40.942Z,102.85
2023-05-15T04:25:40.949Z,102.34
2023-05-15T04:26:40.057Z,100.46
2023-05-15T04:27:40.057Z,98.06
2023-05-15T04:28:41.539Z,99.16
2023-05-15T04:29:41.078Z,99.37
2023-05-15T04:30:41.097Z,99.74
2023-05-15T04:31:41.108Z,99.41
2023-05-15T04:32:41.139Z,98.40
2023-05-15T04:33:40.046Z,102.13
2023-05-15T04:34:41.034Z,103.35
2023-05-15T04:35:41.023Z,102.00
2023-05-15T04:36:42.926Z,103.34
2023-05-15T04:37:40.044Z,103.22
2023-05-15T04:38:41.044Z,103.44
2023-05-15T04:39:40.020Z,107.38
2023-05-15T04:40:41.003Z,105.30
2023-05-15T04:41:40.981Z,101.56
2023-05-15T04:42:40.980Z,99.34
2023-05-15T04:43:41.253Z,102.06
2023-05-15T04:44:40.966Z,100.98
2023-05-15T04:45:39.961Z,102.13
2023-05-15T04:46:40.021Z,104.38
2023-05-15T04:47:41.006Z,104.28
2023-05-15T04:48:40.963Z,102.12
2023-05-15T04:49:40.945Z,101.61
2023-05-15T04:50:40.923Z,99.93
2023-05-15T04:51:39.908Z,101.27
2023-05-15T04:52:39.916Z,100.99
2023-05-15T04:53:40.941Z,101.84
2023-05-15T04:54:39.902Z,102.00
2023-05-15T04:55:40.876Z,103.44
2023-05-15T04:56:40.871Z,100.50
2023-05-15T04:57:39.869Z,103.87
2023-05-15T04:58:40.876Z,101.62
2023-05-15T04:59:40.870Z,102.47
2023-05-15T05:00:39.835Z,101.47
2023-05-15T05:01:40.882Z,104.85
2023-05-15T05:02:40.848Z,101.81
2023-05-15T05:03:39.887Z,103.39
2023-05-15T05:04:40.929Z,105.41
2023-05-15T05:05:39.937Z,101.40
2023-05-15T05:06:40.020Z,101.97
2023-05-15T05:07:41.041Z,100.42
2023-05-15T05:08:41.128Z,101.64
2023-05-15T05:09:41.191Z,102.15
2023-05-15T05:10:40.196Z,100.28
2023-05-15T05:11:40.273Z,100.51
2023-05-15T05:12:40.326Z,99.94
2023-05-15T05:13:40.367Z,98.37
2023-05-15T05:14:41.417Z,100.09
2023-05-15T05:15:41.495Z,98.58
2023-05-15T05:16:41.502Z,101.74
2023-05-15T05:17:41.550Z,100.86
2023-05-15T05:18:40.647Z,99.83
2023-05-15T05:19:41.629Z,104.23
2023-05-15T05:20:41.678Z,105.33
2023-05-15T05:21:41.724Z,104.36
2023-05-15T05:22:41.761Z,105.63
2023-05-15T05:23:40.835Z,106.50
2023-05-15T05:24:40.833Z,109.91
2023-05-15T05:25:41.919Z,107.89
2023-05-15T05:26:40.938Z,101.41
2023-05-15T05:27:40.978Z,98.22
2023-05-15T05:28:42.030Z,98.67
2023-05-15T05:29:42.063Z,98.39
2023-05-15T05:30:42.121Z,101.81
2023-05-15T05:31:41.173Z,98.34
2023-05-15T05:32:42.234Z,101.09
2023-05-15T05:33:42.351Z,99.50
2023-05-15T05:34:42.251Z,99.94
2023-05-15T05:35:41.252Z,101.33
2023-05-15T05:36:41.284Z,100.58
2023-05-15T05:37:42.294Z,104.91
2023-05-15T05:38:42.391Z,107.52
2023-05-15T05:39:41.360Z,109.37
2023-05-15T05:40:42.392Z,111.13
2023-05-15T05:41:41.410Z,103.78
2023-05-15T05:42:42.406Z,104.55
2023-05-15T05:43:42.446Z,106.36
2023-05-15T05:44:41.434Z,108.35
2023-05-15T05:45:42.456Z,111.44
2023-05-15T05:46:42.530Z,111.25
2023-05-15T05:47:41.567Z,114.70
2023-05-15T05:48:42.537Z,114.08
2023-05-15T05:49:42.535Z,116.50
2023-05-15T05:50:42.552Z,114.28
2023-05-15T05:51:42.572Z,118.54
2023-05-15T05:52:41.594Z,122.86
2023-05-15T05:53:42.615Z,123.47
2023-05-15T05:54:41.597Z,127.34
2023-05-15T05:55:42.664Z,132.10
2023-05-15T05:56:41.606Z,136.99
2023-05-15T05:57:42.694Z,132.48
2023-05-15T05:58:42.627Z,134.78
2023-05-15T05:59:42.632Z,139.78
2023-05-15T06:00:42.713Z,141.80
2023-05-15T06:01:42.749Z,144.59
2023-05-15T06:02:42.976Z,141.26
2023-05-15T06:03:42.906Z,141.08
2023-05-15T06:04:41.743Z,148.58
2023-05-15T06:05:42.763Z,143.58
2023-05-15T06:06:42.738Z,152.67
2023-05-15T06:07:41.795Z,147.83
2023-05-15T06:08:41.763Z,146.45
2023-05-15T06:09:41.784Z,149.13
2023-05-15T06:10:42.796Z,145.56
2023-05-15T06:11:41.768Z,148.45
2023-05-15T06:12:41.779Z,151.98
2023-05-15T06:13:41.821Z,156.26
2023-05-15T06:14:41.819Z,158.47
2023-05-15T06:15:42.823Z,160.69
2023-05-15T06:16:42.823Z,163.18
2023-05-15T06:17:41.852Z,153.64
2023-05-15T06:18:42.807Z,155.38
2023-05-15T06:19:42.778Z,158.37
2023-05-15T06:20:41.812Z,144.49
2023-05-15T06:21:41.773Z,148.22
2023-05-15T06:22:41.798Z,154.05
2023-05-15T06:23:42.794Z,155.25
2023-05-15T06:24:42.796Z,149.64
2023-05-15T06:25:42.798Z,151.15
2023-05-15T06:26:42.800Z,150.30
2023-05-15T06:27:42.826Z,154.18
2023-05-15T06:28:42.812Z,153.04
2023-05-15T06:29:42.893Z,152.50
2023-05-15T06:30:42.934Z,147.52
2023-05-15T06:31:41.979Z,140.57
2023-05-15T06:32:43.122Z,140.46
2023-05-15T06:33:43.087Z,133.40
2023-05-15T06:34:43.100Z,128.13
2023-05-15T06:35:42.148Z,130.35
2023-05-15T06:36:42.225Z,132.97
2023-05-15T06:37:43.299Z,135.55
2023-05-15T06:38:43.334Z,138.04
2023-05-15T06:39:43.451Z,135.32
2023-05-15T06:40:43.451Z,138.75
2023-05-15T06:41:43.532Z,136.27
2023-05-15T06:42:43.599Z,130.70
2023-05-15T06:43:43.641Z,135.44
2023-05-15T06:44:42.710Z,132.09
2023-05-15T06:45:43.931Z,128.22
2023-05-15T06:46:43.840Z,131.08
2023-05-15T06:47:42.895Z,133.42
2023-05-15T06:48:43.920Z,124.13
2023-05-15T06:49:42.987Z,134.24
2023-05-15T06:50:44.025Z,136.97
2023-05-15T06:51:44.099Z,117.17
2023-05-15T06:52:43.114Z,102.68
2023-05-15T06:53:43.118Z,99.82
2023-05-15T06:54:44.328Z,88.45
2023-05-15T06:55:43.141Z,78.90
2023-05-15T06:56:44.169Z,88.63
2023-05-15T06:57:43.218Z,96.64
2023-05-15T06:58:43.233Z,108.19
2023-05-15T06:59:44.275Z,111.59
2023-05-15T07:00:44.194Z,118.50
2023-05-15T07:01:43.396Z,116.76
2023-05-15T07:02:43.343Z,121.77
2023-05-15T07:03:43.418Z,125.75
2023-05-15T07:04:44.471Z,130.24
2023-05-15T07:05:44.522Z,128.56
2023-05-15T07:06:43.560Z,132.78
2023-05-15T07:07:44.621Z,134.77
2023-05-15T07:08:44.623Z,135.32
2023-05-15T07:09:43.714Z,134.30
2023-05-15T07:10:44.752Z,140.90
2023-05-15T07:11:44.763Z,142.68
2023-05-15T07:12:44.837Z,145.34
2023-05-15T07:13:44.940Z,148.94
2023-05-15T07:14:43.949Z,147.20
2023-05-15T07:15:44.991Z,153.75
2023-05-15T07:16:44.999Z,152.89
2023-05-15T07:17:45.272Z,152.01
2023-05-15T07:18:44.148Z,150.59
2023-05-15T07:19:45.127Z,148.88
2023-05-15T07:20:45.192Z,148.30
2023-05-15T07:21:45.198Z,143.66
2023-05-15T07:22:54.908Z,144.02
2023-05-15T07:23:45.226Z,144.26
2023-05-15T07:24:45.258Z,144.50
2023-05-15T07:25:46.191Z,144.93
2023-05-15T07:26:57.567Z,149.02
2023-05-15T07:27:45.186Z,144.75
2023-05-15T07:28:45.172Z,147.28
2023-05-15T07:29:45.324Z,149.02
2023-05-15T07:30:45.191Z,159.01
2023-05-15T07:31:44.189Z,172.37
2023-05-15T07:32:44.182Z,155.14
2023-05-15T07:33:44.259Z,152.05
2023-05-15T07:34:45.143Z,146.96
2023-05-15T07:35:45.133Z,145.72
2023-05-15T07:36:44.194Z,148.32
2023-05-15T07:37:46.144Z,144.49
2023-05-15T07:38:45.102Z,149.04
2023-05-15T07:39:44.189Z,152.32
2023-05-15T07:40:45.092Z,155.33
2023-05-15T07:41:45.086Z,155.31
2023-05-15T07:42:44.139Z,162.28
2023-05-15T07:43:45.063Z,165.73
2023-05-15T07:44:45.997Z,169.01
2023-05-15T07:45:45.124Z,173.45
2023-05-15T07:46:44.253Z,173.90
2023-05-15T07:47:45.068Z,175.25
2023-05-15T07:48:44.052Z,177.25
2023-05-15T07:49:44.142Z,185.09
2023-05-15T07:50:44.011Z,195.56
2023-05-15T07:51:45.028Z,197.99
2023-05-15T07:52:44.020Z,203.87
2023-05-15T07:53:43.996Z,208.13
2023-05-15T07:54:45.042Z,213.74
2023-05-15T07:55:44.979Z,222.49
2023-05-15T07:56:44.962Z,228.93
2023-05-15T07:57:43.949Z,235.47
2023-05-15T07:58:43.948Z,239.35
2023-05-15T07:59:44.953Z,244.05
2023-05-15T08:00:44.984Z,249.06
2023-05-15T08:01:44.955Z,249.36
2023-05-15T08:02:45.043Z,247.78
2023-05-15T08:03:43.992Z,245.28
2023-05-15T08:04:43.955Z,250.00
2023-05-15T08:05:44.996Z,246.11
2023-05-15T08:06:44.570Z,249.40
2023-05-15T08:07:43.895Z,245.27
2023-05-15T08:08:43.895Z,247.55
2023-05-15T08:09:43.874Z,249.41
2023-05-15T08:10:44.868Z,245.16
2023-05-15T08:11:44.858Z,246.86
2023-05-15T08:12:43.869Z,248.66
2023-05-15T08:13:43.880Z,248.01
2023-05-15T08:14:43.959Z,248.73
2023-05-15T08:15:44.870Z,249.45
2023-05-15T08:16:44.830Z,248.52
2023-05-15T08:17:43.844Z,248.53
2023-05-15T08:18:43.832Z,248.99
2023-05-15T08:19:43.838Z,245.76
2023-05-15T08:20:43.826Z,248.10
2023-05-15T08:21:43.888Z,247.21
2023-05-15T08:22:44.887Z,246.60
2023-05-15T08:23:44.939Z,248.72
2023-05-15T08:24:43.965Z,248.32
2023-05-15T08:25:44.034Z,250.00
2023-05-15T08:26:44.113Z,246.11
2023-05-15T08:27:45.238Z,246.81
2023-05-15T08:28:44.233Z,247.66
2023-05-15T08:29:45.284Z,245.79
2023-05-15T08:30:45.332Z,248.14
2023-05-15T08:31:45.445Z,246.63
2023-05-15T08:32:45.513Z,249.23
2023-05-15T08:33:45.562Z,248.69
2023-05-15T08:34:45.579Z,248.34
2023-05-15T08:35:45.673Z,249.34
2023-05-15T08:36:45.677Z,248.20
2023-05-15T08:37:45.722Z,247.94
2023-05-15T08:38:44.752Z,248.90
2023-05-15T08:39:45.815Z,249.26
2023-05-15T08:40:45.881Z,249.37
2023-05-15T08:41:44.886Z,248.46
2023-05-15T08:42:44.968Z,249.57
2023-05-15T08:43:45.978Z,247.18
2023-05-15T08:44:46.024Z,244.24
2023-05-15T08:45:46.035Z,244.82
2023-05-15T08:46:46.106Z,244.19
2023-05-15T08:47:46.146Z,249.26
2023-05-15T08:48:46.215Z,248.51
2023-05-15T08:49:45.244Z,249.90
2023-05-15T08:50:46.283Z,249.04
2023-05-15T08:51:45.329Z,247.73
2023-05-15T08:52:46.390Z,247.11
2023-05-15T08:53:46.450Z,248.52
2023-05-15T08:54:48.062Z,247.03
2023-05-15T08:55:45.470Z,249.73
2023-05-15T08:56:46.489Z,248.87
2023-05-15T08:57:45.471Z,250.00
2023-05-15T08:58:46.445Z,247.87
2023-05-15T08:59:45.465Z,249.54
2023-05-15T09:00:45.459Z,248.55
2023-05-15T09:01:46.478Z,249.22
2023-05-15T09:02:45.487Z,247.66
2023-05-15T09:03:46.516Z,248.53
2023-05-15T09:04:45.431Z,250.00
2023-05-15T09:05:46.434Z,249.91
2023-05-15T09:06:45.393Z,249.61
2023-05-15T09:07:45.380Z,248.47
2023-05-15T09:08:46.378Z,247.54
2023-05-15T09:09:46.495Z,246.58
2023-05-15T09:10:45.362Z,248.24
2023-05-15T09:11:45.361Z,248.63
2023-05-15T09:12:46.365Z,249.40
2023-05-15T09:13:46.352Z,248.08
2023-05-15T09:14:45.401Z,249.39
2023-05-15T09:15:45.349Z,248.82
2023-05-15T09:16:46.380Z,250.00
2023-05-15T09:17:46.354Z,248.38
2023-05-15T09:18:46.343Z,249.30
2023-05-15T09:19:46.304Z,249.14
2023-05-15T09:20:46.312Z,248.30
2023-05-15T09:21:46.275Z,248.56
2023-05-15T09:22:46.280Z,247.92
2023-05-15T09:23:46.260Z,247.61
2023-05-15T09:24:46.280Z,248.54
2023-05-15T09:25:45.281Z,247.68
2023-05-15T09:26:46.286Z,247.28
2023-05-15T09:27:45.258Z,248.39
2023-05-15T09:28:46.242Z,249.07
2023-05-15T09:29:46.229Z,250.00
2023-05-15T09:30:45.261Z,248.74
2023-05-15T09:31:46.255Z,250.00
2023-05-15T09:32:45.214Z,248.43
2023-05-15T09:33:46.196Z,247.77
2023-05-15T09:34:46.184Z,249.55
2023-05-15T09:35:46.206Z,247.47
2023-05-15T09:36:46.194Z,249.36
2023-05-15T09:37:45.185Z,250.00
2023-05-15T09:38:46.163Z,248.86
2023-05-15T09:39:46.182Z,247.66
2023-05-15T09:40:46.248Z,249.02
2023-05-15T09:41:46.277Z,248.11
2023-05-15T09:42:46.297Z,249.42
2023-05-15T09:43:46.288Z,247.74
2023-05-15T09:44:45.324Z,248.58
2023-05-15T09:45:46.400Z,250.00
2023-05-15T09:46:45.573Z,247.07
2023-05-15T09:47:46.469Z,247.82
2023-05-15T09:48:45.503Z,249.35
2023-05-15T09:49:46.561Z,246.74
2023-05-15T09:50:46.876Z,246.22
2023-05-15T09:51:45.584Z,249.09
2023-05-15T09:52:46.562Z,248.90
2023-05-15T09:53:45.552Z,249.88
2023-05-15T09:54:48.728Z,247.88
2023-05-15T09:55:45.580Z,234.15
2023-05-15T09:56:46.552Z,203.17
2023-05-15T09:57:45.574Z,175.74
2023-05-15T09:58:45.539Z,141.95
2023-05-15T09:59:46.538Z,124.26
2023-05-15T10:00:47.965Z,139.45
2023-05-15T10:01:45.609Z,140.07
2023-05-15T10:02:46.558Z,143.00
2023-05-15T10:03:45.529Z,151.21
2023-05-15T10:04:46.588Z,164.17
2023-05-15T10:05:46.525Z,171.26
2023-05-15T10:06:46.497Z,172.60
2023-05-15T10:07:45.466Z,171.81
2023-05-15T10:08:46.481Z,171.03
2023-05-15T10:09:45.485Z,169.20
2023-05-15T10:10:45.447Z,169.91
2023-05-15T10:11:46.446Z,167.17
2023-05-15T10:12:47.228Z,163.84
2023-05-15T10:13:46.454Z,166.10
2023-05-15T10:14:46.426Z,165.10
2023-05-15T10:15:45.412Z,165.68
2023-05-15T10:16:46.428Z,162.80
2023-05-15T10:17:46.408Z,158.13
2023-05-15T10:18:45.473Z,157.62
2023-05-15T10:19:57.066Z,157.55
2023-05-15T10:20:46.374Z,157.81
2023-05-15T10:21:46.362Z,159.09
2023-05-15T10:22:46.357Z,160.37
2023-05-15T10:23:46.354Z,162.37
2023-05-15T10:24:46.344Z,167.70
2023-05-15T10:25:46.326Z,167.18
2023-05-15T10:26:46.393Z,167.86
2023-05-15T10:27:45.381Z,168.75
2023-05-15T10:28:45.314Z,167.93
2023-05-15T10:29:46.333Z,168.35
2023-05-15T10:30:46.314Z,173.21
2023-05-15T10:31:45.342Z,173.89
2023-05-15T10:32:46.349Z,173.18
2023-05-15T10:33:46.275Z,174.16
2023-05-15T10:34:46.266Z,175.44
2023-05-15T10:35:45.260Z,175.14
2023-05-15T10:36:46.255Z,175.32
2023-05-15T10:37:46.252Z,176.08
2023-05-15T10:38:45.250Z,174.05
2023-05-15T10:39:45.267Z,175.49
2023-05-15T10:40:46.225Z,175.55
2023-05-15T10:41:46.398Z,175.67
2023-05-15T10:42:45.210Z,173.98
2023-05-15T10:43:45.213Z,175.53
2023-05-15T10:44:45.194Z,175.88
2023-05-15T10:45:46.225Z,174.79
2023-05-15T10:46:45.448Z,179.04
2023-05-15T10:47:46.229Z,171.73
2023-05-15T10:48:46.177Z,176.24
2023-05-15T10:49:45.174Z,178.00
2023-05-15T10:50:45.164Z,177.16
2023-05-15T10:51:46.166Z,175.67
2023-05-15T10:52:46.159Z,175.34
2023-05-15T10:53:45.138Z,170.86
2023-05-15T10:54:45.135Z,169.70
2023-05-15T10:55:46.147Z,167.68
2023-05-15T10:56:45.126Z,167.75
2023-05-15T10:57:45.112Z,167.35
2023-05-15T10:58:45.105Z,163.00
2023-05-15T10:59:45.086Z,162.23
2023-05-15T11:00:45.170Z,162.22
2023-05-15T11:01:45.189Z,159.58
2023-05-15T11:02:46.095Z,159.13
2023-05-15T11:03:49.537Z,157.64
2023-05-15T11:04:46.189Z,157.73
2023-05-15T11:05:46.124Z,154.28
2023-05-15T11:06:45.127Z,151.78
2023-05-15T11:07:46.129Z,144.98
2023-05-15T11:08:46.122Z,145.04
2023-05-15T11:09:46.125Z,145.43
2023-05-15T11:10:45.148Z,144.31
2023-05-15T11:11:46.196Z,142.22
2023-05-15T11:12:45.140Z,138.84
2023-05-15T11:13:46.126Z,136.92
2023-05-15T11:14:46.144Z,137.49
2023-05-15T11:15:46.136Z,136.54
2023-05-15T11:16:46.159Z,134.72
2023-05-15T11:17:46.236Z,135.26
2023-05-15T11:18:45.193Z,133.40
2023-05-15T11:19:45.157Z,124.05
2023-05-15T11:20:45.183Z,127.00
2023-05-15T11:21:46.198Z,127.63
2023-05-15T11:22:46.185Z,126.61
2023-05-15T11:23:46.187Z,126.81
2023-05-15T11:24:46.191Z,126.30
2023-05-15T11:25:45.195Z,123.10
2023-05-15T11:26:46.264Z,120.92
2023-05-15T11:27:45.273Z,121.23
2023-05-15T11:28:46.296Z,121.01
2023-05-15T11:29:45.308Z,117.92
2023-05-15T11:30:46.390Z,114.62
2023-05-15T11:31:46.372Z,114.32
2023-05-15T11:32:45.472Z,114.61
2023-05-15T11:33:46.506Z,111.81
2023-05-15T11:34:46.541Z,109.41
2023-05-15T11:35:46.617Z,90.30
2023-05-15T11:36:45.620Z,90.63
2023-05-15T11:37:46.602Z,85.94
2023-05-15T11:38:46.612Z,81.27
2023-05-15T11:39:46.615Z,75.70
2023-05-15T11:40:46.610Z,70.96
2023-05-15T11:41:45.661Z,64.30
2023-05-15T11:42:46.623Z,58.22
2023-05-15T11:43:45.632Z,51.48
2023-05-15T11:44:45.631Z,40.59
2023-05-15T11:45:45.644Z,35.38
2023-05-15T11:46:46.722Z,28.36
2023-05-15T11:47:46.767Z,25.40
2023-05-15T11:48:45.713Z,25.00
2023-05-15T11:49:46.904Z,25.00
2023-05-15T11:50:46.788Z,26.31
2023-05-15T11:51:46.863Z,25.99
2023-05-15T11:52:45.868Z,25.00
2023-05-15T11:53:46.946Z,25.54
2023-05-15T11:54:46.994Z,26.82
2023-05-15T11:55:46.036Z,27.38
2023-05-15T11:56:46.098Z,26.82
2023-05-15T11:57:47.158Z,26.45
2023-05-15T11:58:47.222Z,25.46
2023-05-15T11:59:47.288Z,25.00
2023-05-15T12:00:46.364Z,25.08
2023-05-15T12:01:47.452Z,27.80
2023-05-15T12:02:46.512Z,29.36
2023-05-15T12:03:47.718Z,28.73
2023-05-15T12:04:46.643Z,27.99
2023-05-15T12:05:57.654Z,27.09
2023-05-15T12:06:47.666Z,25.96
2023-05-15T12:07:47.629Z,22.31
2023-05-15T12:08:47.611Z,24.37
2023-05-15T12:09:47.615Z,21.15
2023-05-15T12:10:47.604Z,18.94
2023-05-15T12:11:47.613Z,26.18
2023-05-15T12:12:47.619Z,26.97
2023-05-15T12:13:47.598Z,30.09
2023-05-15T12:14:47.594Z,28.92
2023-05-15T12:15:47.623Z,27.75
2023-05-15T12:16:46.628Z,29.83
2023-05-15T12:17:46.613Z,29.40
2023-05-15T12:18:46.594Z,30.53
2023-05-15T12:19:46.579Z,28.40
2023-05-15T12:20:47.607Z,27.50
2023-05-15T12:21:46.574Z,26.02
2023-05-15T12:22:47.548Z,28.89
2023-05-15T12:23:53.300Z,28.96
2023-05-15T12:24:47.540Z,29.03
2023-05-15T12:25:46.528Z,27.48
2023-05-15T12:26:47.520Z,26.87
2023-05-15T12:27:47.533Z,26.24
2023-05-15T12:28:46.495Z,26.75
2023-05-15T12:29:46.491Z,27.02
2023-05-15T12:30:47.477Z,25.36
2023-05-15T12:31:47.574Z,27.98
2023-05-15T12:32:47.538Z,25.68
2023-05-15T12:33:47.452Z,27.80
2023-05-15T12:34:47.467Z,30.16
2023-05-15T12:35:47.469Z,32.26